< < Back
Terminal Aerodrome Forecast


Current Version              Previous Versions:   1  2  3  4  5  6  7  8  9  

Terminal Aerodrome Forecast

816
FTUS42 KTAE 231000 AAB
TAFABY
TAF AMD
KABY 231043Z 2311/2406 00000KT 3SM BR SCT007 BKN050
      TEMPO 2311/2312 1/2SM FG BKN004
     FM231400 33005KT P6SM SCT040=



Latest METAR

440
SAUS70 KWBC 240700 RRE
MTRABY
METAR KABY 240653Z 00000KT 5SM BR CLR 15/14 A2994 RMK AO2 SLP138
T01500139


USA.gov is the U.S. government's official web portal to all federal, state and local government web resources and services.